Aviation meteorology

METAR


Last update: 24 Nov 2020 17:20:00
400
SAHU41 HASM 241730
METAR LHSM 241715Z AUTO 09004KT 060V120 2600 BR VV002 01/01 Q1030

TAF


Last update: 24 Nov 2020 17:05:00
398
FCHU99 LHSM 241700
TAF LHSM 241700Z NIL